Time;durP1;ratioP1;P1;durP2;ratioP2;P2;SDS_P1;SDS_P2;PMS_P1;PMS_P2;Temp;Humidity;BMP_temperature;BMP_pressure;BME280_temperature;BME280_humidity;BME280_pressure;Samples;Min_cycle;Max_cycle;Signal;HPM_P1;HPM_P2
2022/04/20 00:01:50;;;;;;;13.00;9.27;;;;;;;9.40;50.28;94301.94;5055811;28;20205;-76
2022/04/20 00:04:17;;;;;;;16.63;9.23;;;;;;;9.38;50.42;94303.03;5063887;28;20275;-77
2022/04/20 00:06:44;;;;;;;17.30;9.63;;;;;;;9.37;50.47;94304.78;5051736;28;20187;-74
2022/04/20 00:09:11;;;;;;;13.80;8.73;;;;;;;9.36;50.41;94302.34;5051766;28;20226;-75
2022/04/20 00:11:39;;;;;;;16.10;9.27;;;;;;;9.28;50.58;94285.19;5049508;28;20176;-76
2022/04/20 00:14:06;;;;;;;13.60;10.20;;;;;;;9.32;50.43;94294.16;5051888;28;20205;-75
2022/04/20 00:16:33;;;;;;;15.97;10.20;;;;;;;9.26;50.62;94287.88;5051599;28;20191;-75
2022/04/20 00:19:00;;;;;;;15.13;10.40;;;;;;;9.26;50.57;94303.19;5051743;28;20250;-75
2022/04/20 00:21:27;;;;;;;16.50;10.13;;;;;;;9.22;50.60;94296.75;5051620;28;20180;-76
2022/04/20 00:23:54;;;;;;;14.70;9.37;;;;;;;9.25;50.75;94296.50;5051910;28;20213;-75
2022/04/20 00:26:21;;;;;;;13.23;8.83;;;;;;;9.22;50.78;94306.16;5051993;28;20249;-76
2022/04/20 00:28:49;;;;;;;12.73;9.73;;;;;;;9.22;50.76;94293.41;5051006;28;20198;-76
2022/04/20 00:31:16;;;;;;;13.07;9.70;;;;;;;9.20;50.92;94296.09;5051531;28;20195;-76
2022/04/20 00:33:43;;;;;;;17.50;10.73;;;;;;;9.19;50.97;94291.13;5050949;28;20194;-75
2022/04/20 00:36:10;;;;;;;13.20;9.77;;;;;;;9.16;50.99;94297.31;5051428;28;20241;-76
2022/04/20 00:38:37;;;;;;;13.47;9.83;;;;;;;9.15;51.01;94290.59;5051048;28;20314;-76
2022/04/20 00:41:03;;;;;;;13.57;9.60;;;;;;;9.15;51.09;94294.91;5051668;28;20270;-75
2022/04/20 00:43:30;;;;;;;14.83;10.23;;;;;;;9.14;51.10;94290.75;5051113;28;20574;-75
2022/04/20 00:46:01;;;;;;;16.30;10.13;;;;;;;9.10;51.31;94295.31;5051339;28;20202;-76
2022/04/20 00:48:28;;;;;;;14.53;10.00;;;;;;;9.09;51.31;94296.25;5050762;28;20658;-75
2022/04/20 00:50:55;;;;;;;15.43;10.17;;;;;;;9.09;51.32;94292.91;5050972;28;20187;-75
2022/04/20 00:53:22;;;;;;;16.57;10.67;;;;;;;8.98;51.24;94278.56;5051369;28;20191;-75
2022/04/20 00:55:49;;;;;;;17.43;10.03;;;;;;;9.04;51.51;94295.88;5050440;28;20194;-75
2022/04/20 00:58:15;;;;;;;14.07;9.37;;;;;;;9.03;51.47;94297.63;5051100;28;20241;-76
2022/04/20 01:00:42;;;;;;;13.27;10.00;;;;;;;9.03;51.47;94291.72;5050783;28;20198;-75
2022/04/20 01:03:10;;;;;;;14.80;9.77;;;;;;;8.99;51.91;94303.94;5050802;28;20199;-76
2022/04/20 01:05:37;;;;;;;16.87;10.07;;;;;;;8.99;51.64;94295.50;5049865;28;20657;-75
2022/04/20 01:08:05;;;;;;;24.27;10.13;;;;;;;8.99;51.78;94295.50;5051090;28;20180;-75
2022/04/20 01:10:32;;;;;;;16.53;10.27;;;;;;;8.96;51.82;94296.56;5050477;28;20194;-75
2022/04/20 01:12:59;;;;;;;13.87;9.80;;;;;;;8.96;51.80;94295.75;5051402;28;20218;-75
2022/04/20 01:15:26;;;;;;;12.27;9.13;;;;;;;8.85;51.97;94280.59;5049969;28;20198;-76
2022/04/20 01:17:53;;;;;;;15.43;9.33;;;;;;;8.92;51.89;94292.66;5050503;28;20206;-76
2022/04/20 01:20:21;;;;;;;11.00;8.97;;;;;;;8.91;51.89;94295.38;5050387;28;20218;-75
2022/04/20 01:22:49;;;;;;;15.83;9.63;;;;;;;8.88;51.82;94286.25;5050502;28;20187;-75
2022/04/20 01:25:16;;;;;;;13.30;8.97;;;;;;;8.85;51.92;94291.63;5050602;28;20191;-76
2022/04/20 01:27:43;;;;;;;15.30;8.97;;;;;;;8.86;51.99;94294.97;5050065;28;20191;-75
2022/04/20 01:30:10;;;;;;;13.57;9.57;;;;;;;8.85;52.09;94295.91;5050585;28;20187;-75
2022/04/20 01:32:39;;;;;;;13.37;9.63;;;;;;;8.83;52.04;94301.16;5049798;28;20221;-76
2022/04/20 01:35:08;;;;;;;10.87;8.53;;;;;;;8.77;52.01;94288.97;5050406;28;20195;-75
2022/04/20 01:37:35;;;;;;;12.03;8.77;;;;;;;8.80;52.17;94293.75;5049775;28;20187;-75
2022/04/20 01:40:03;;;;;;;17.77;9.90;;;;;;;8.80;52.21;94302.22;5050154;28;20234;-75
2022/04/20 01:42:30;;;;;;;19.07;9.30;;;;;;;8.79;52.24;94305.72;5050035;28;20199;-75
2022/04/20 01:44:58;;;;;;;12.27;8.87;;;;;;;8.74;52.81;94299.41;5050766;28;20186;-76
2022/04/20 01:47:26;;;;;;;12.17;8.87;;;;;;;8.75;52.53;94301.81;5049593;28;20284;-76
2022/04/20 01:49:53;;;;;;;11.23;8.27;;;;;;;8.76;52.62;94307.72;5050072;28;20666;-75
2022/04/20 01:52:20;;;;;;;11.23;8.40;;;;;;;8.69;52.60;94289.63;5049888;28;21029;-75
2022/04/20 01:54:46;;;;;;;12.63;8.93;;;;;;;8.73;52.69;94303.72;5049929;28;20202;-76
2022/04/20 01:57:15;;;;;;;10.07;8.33;;;;;;;8.73;52.87;94303.72;5050024;28;20685;-75
2022/04/20 01:59:41;;;;;;;14.27;9.73;;;;;;;8.70;53.02;94303.19;5050038;28;20214;-76
2022/04/20 02:04:53;;;;;;;12.70;8.47;;;;;;;8.68;52.96;94310.16;5049962;28;20222;-75
2022/04/20 02:07:19;;;;;;;12.07;8.73;;;;;;;8.65;53.06;94308.69;5049909;28;20187;-76
2022/04/20 02:09:46;;;;;;;10.90;8.57;;;;;;;8.68;53.11;94307.59;5049370;28;20288;-75
2022/04/20 02:12:14;;;;;;;13.50;8.73;;;;;;;8.67;53.20;94309.34;5050037;28;20194;-75
2022/04/20 02:14:41;;;;;;;11.53;9.30;;;;;;;8.66;53.14;94305.19;5049910;28;20199;-75
2022/04/20 02:17:08;;;;;;;14.03;9.27;;;;;;;8.65;53.34;94297.69;5049678;28;20274;-75
2022/04/20 02:19:35;;;;;;;13.10;9.00;;;;;;;8.64;53.43;94304.53;5049447;28;20218;-75
2022/04/20 02:22:01;;;;;;;13.07;9.13;;;;;;;8.64;53.68;94296.88;5049893;28;20264;-75
2022/04/20 02:24:28;;;;;;;11.37;8.77;;;;;;;8.62;53.75;94292.84;5052911;28;20187;-74
2022/04/20 02:26:55;;;;;;;12.23;8.50;;;;;;;8.64;53.84;94291.78;5053953;28;20198;-74
2022/04/20 02:29:23;;;;;;;15.07;8.77;;;;;;;8.65;53.81;94295.13;5053415;28;20268;-74
2022/04/20 02:31:50;;;;;;;12.20;9.30;;;;;;;8.65;53.80;94292.59;5052844;28;20217;-75
2022/04/20 02:34:17;;;;;;;12.80;8.77;;;;;;;8.64;53.76;94296.88;5053165;28;20191;-75
2022/04/20 02:36:44;;;;;;;9.30;8.17;;;;;;;8.62;53.95;94287.75;5053507;28;20179;-74
2022/04/20 02:39:11;;;;;;;10.80;8.43;;;;;;;8.64;53.98;94289.25;5053063;28;20226;-73
2022/04/20 02:41:38;;;;;;;14.17;9.73;;;;;;;8.63;54.16;94289.34;5053412;28;20187;-74
2022/04/20 02:44:06;;;;;;;12.57;8.93;;;;;;;8.63;54.08;94289.34;5053710;28;20183;-74
2022/04/20 02:46:34;;;;;;;11.47;8.77;;;;;;;8.62;54.03;94288.56;5053546;28;20198;-74
2022/04/20 02:49:01;;;;;;;10.13;8.53;;;;;;;8.61;54.34;94278.50;5053422;28;20195;-74
2022/04/20 02:51:28;;;;;;;11.53;9.00;;;;;;;8.58;54.19;94282.13;5052920;28;20206;-75
2022/04/20 02:53:55;;;;;;;12.43;8.43;;;;;;;8.60;54.38;94289.66;5053427;28;20191;-74
2022/04/20 02:56:22;;;;;;;12.10;8.90;;;;;;;8.59;54.55;94298.22;5053466;28;20639;-75
2022/04/20 02:58:50;;;;;;;11.33;8.73;;;;;;;8.58;54.29;94297.41;5052826;28;20191;-75
2022/04/20 03:01:16;;;;;;;16.87;9.30;;;;;;;8.57;54.57;94297.56;5052939;28;20226;-75
2022/04/20 03:03:45;;;;;;;12.23;8.40;;;;;;;8.56;54.64;94299.31;5052590;28;20293;-79
2022/04/20 03:06:12;;;;;;;10.33;8.33;;;;;;;8.55;54.19;94295.16;5052950;28;20684;-78
2022/04/20 03:08:39;;;;;;;17.27;9.23;;;;;;;8.57;54.47;94303.47;5052886;28;20251;-76
2022/04/20 03:11:05;;;;;;;13.50;8.47;;;;;;;8.52;54.42;94286.03;5052786;28;20270;-74
2022/04/20 03:13:32;;;;;;;13.07;8.40;;;;;;;8.56;54.51;94301.06;5052326;28;20190;-74
2022/04/20 03:15:59;;;;;;;12.23;9.70;;;;;;;8.56;54.52;94306.16;5052685;28;20198;-74
2022/04/20 03:18:31;;;;;;;11.57;9.03;;;;;;;8.53;54.74;94305.47;5052963;28;20195;-74
2022/04/20 03:21:00;;;;;;;13.10;8.80;;;;;;;8.56;54.65;94306.94;5052761;28;20310;-75
2022/04/20 03:23:26;;;;;;;11.60;9.03;;;;;;;8.55;54.70;94307.91;5052710;28;20195;-75
2022/04/20 03:25:53;;;;;;;12.53;8.87;;;;;;;8.56;54.77;94313.78;5052860;28;20199;-75
2022/04/20 03:28:20;;;;;;;14.57;8.77;;;;;;;8.57;54.90;94302.66;5052714;28;20796;-75
2022/04/20 03:30:47;;;;;;;16.03;9.90;;;;;;;8.57;54.90;94289.91;5052427;28;20214;-75
2022/04/20 03:33:15;;;;;;;12.10;9.40;;;;;;;8.53;54.92;94285.06;5052611;28;20202;-74
2022/04/20 03:35:42;;;;;;;15.37;9.23;;;;;;;8.57;54.73;94295.00;5051172;28;20187;-74
2022/04/20 03:38:11;;;;;;;13.23;8.77;;;;;;;8.56;55.01;94280.66;5052322;28;20213;-75
2022/04/20 03:40:39;;;;;;;14.77;9.47;;;;;;;8.57;55.07;94280.53;5052532;28;20231;-75
2022/04/20 03:43:06;;;;;;;11.13;8.77;;;;;;;8.59;55.14;94280.38;5052021;28;20184;-75
2022/04/20 03:45:33;;;;;;;13.50;7.53;;;;;;;8.59;55.25;94277.81;5052084;28;20611;-75
2022/04/20 03:48:00;;;;;;;9.33;7.67;;;;;;;8.58;55.60;94278.78;5052523;28;20249;-75
2022/04/20 03:50:27;;;;;;;10.10;7.70;;;;;;;8.60;55.56;94287.91;5052054;28;20191;-75
2022/04/20 03:52:54;;;;;;;10.00;7.60;;;;;;;8.63;55.47;94291.91;5052000;28;20226;-75
2022/04/20 03:55:22;;;;;;;9.00;7.70;;;;;;;8.64;55.60;94289.25;5051829;28;20200;-75
2022/04/20 03:57:49;;;;;;;9.23;7.70;;;;;;;8.66;55.68;94287.34;5051586;28;20183;-74
2022/04/20 04:00:16;;;;;;;9.97;8.57;;;;;;;8.63;55.84;94282.50;5051920;28;20210;-76
2022/04/20 04:02:43;;;;;;;8.93;7.83;;;;;;;8.70;55.95;94295.53;5051436;28;20191;-77
2022/04/20 04:05:10;;;;;;;7.60;6.73;;;;;;;8.74;55.96;94286.69;5052367;28;20206;-75
2022/04/20 04:07:37;;;;;;;9.67;7.67;;;;;;;8.72;56.04;94278.34;5050637;28;20584;-75
2022/04/20 04:10:07;;;;;;;9.27;7.60;;;;;;;8.77;56.24;94281.31;5052025;28;20300;-76
2022/04/20 04:12:36;;;;;;;8.37;7.40;;;;;;;8.80;56.14;94283.56;5051204;28;20263;-78
2022/04/20 04:15:05;;;;;;;10.63;8.10;;;;;;;8.87;56.13;94268.53;5052227;28;20268;-77
2022/04/20 04:17:32;;;;;;;10.10;7.63;;;;;;;8.92;56.12;94272.28;5051620;28;20274;-75
2022/04/20 04:19:59;;;;;;;7.93;7.23;;;;;;;8.95;56.19;94266.09;5051358;28;20222;-75
2022/04/20 04:22:26;;;;;;;8.50;7.70;;;;;;;8.82;56.05;94227.34;5051579;28;20191;-75
2022/04/20 04:24:53;;;;;;;11.93;7.30;;;;;;;9.03;56.17;94264.47;5051785;28;20642;-75
2022/04/20 04:27:21;;;;;;;8.07;7.27;;;;;;;8.92;56.24;94244.22;5051649;28;20197;-76
2022/04/20 04:29:49;;;;;;;9.30;7.67;;;;;;;9.07;56.25;94249.69;5051158;28;20345;-76
2022/04/20 04:32:16;;;;;;;9.93;7.87;;;;;;;9.12;56.06;94254.38;5049509;28;20191;-77
2022/04/20 04:34:43;;;;;;;11.73;8.33;;;;;;;9.14;56.40;94255.03;5051228;28;20195;-76
2022/04/20 04:37:14;;;;;;;8.10;7.30;;;;;;;9.12;56.56;94249.28;5051590;28;20190;-76
2022/04/20 04:39:41;;;;;;;10.50;8.03;;;;;;;9.15;56.40;94254.09;5050754;28;20229;-75
2022/04/20 04:42:09;;;;;;;7.73;6.93;;;;;;;9.20;56.26;94262.13;5051402;28;20347;-75
2022/04/20 04:44:36;;;;;;;9.13;8.20;;;;;;;9.21;56.06;94262.00;5051436;28;20183;-78
2022/04/20 04:49:49;;;;;;;10.37;8.13;;;;;;;9.28;56.25;94270.69;5035728;28;20332;-76
2022/04/20 04:52:16;;;;;;;9.93;4.03;;;;;;;9.45;75.38;94276.00;5051244;28;20659;-77
2022/04/20 04:54:43;;;;;;;9.40;7.10;;;;;;;9.80;69.79;94275.28;5051019;28;20195;-75
2022/04/20 04:57:12;;;;;;;7.07;6.33;;;;;;;9.96;65.33;94267.00;5051471;28;20589;-76
2022/04/20 04:59:39;;;;;;;11.67;7.40;;;;;;;9.98;63.04;94257.44;5050893;28;20206;-81
2022/04/20 05:02:08;;;;;;;8.20;7.00;;;;;;;10.05;61.46;94268.66;5051145;28;20573;-79
2022/04/20 05:04:36;;;;;;;11.17;6.93;;;;;;;10.13;60.04;94278.16;5050796;28;20195;-75
2022/04/20 05:07:03;;;;;;;14.97;7.43;;;;;;;10.16;59.37;94271.03;5050749;28;20195;-75
2022/04/20 05:09:30;;;;;;;11.23;7.40;;;;;;;10.17;58.53;94287.16;5050364;28;20606;-74
2022/04/20 05:11:57;;;;;;;9.87;8.63;;;;;;;10.19;57.83;94291.19;5050821;28;20197;-73
2022/04/20 05:14:23;;;;;;;11.70;7.70;;;;;;;10.21;57.61;94301.25;5050778;28;20187;-73
2022/04/20 05:16:51;;;;;;;14.97;8.20;;;;;;;10.19;57.15;94301.41;5050632;28;20236;-73
2022/04/20 05:19:22;;;;;;;11.43;8.60;;;;;;;10.23;56.87;94299.34;5050635;28;20225;-76
2022/04/20 05:21:49;;;;;;;14.03;8.97;;;;;;;10.23;56.59;94309.56;5050505;28;20187;-74
2022/04/20 05:24:16;;;;;;;14.97;10.17;;;;;;;10.23;56.31;94318.06;5050719;28;20658;-75
2022/04/20 05:26:43;;;;;;;13.43;9.80;;;;;;;10.23;56.14;94318.06;5050053;28;20198;-75
2022/04/20 05:29:19;;;;;;;14.23;10.37;;;;;;;10.22;55.87;94313.88;5050777;28;20255;-75
2022/04/20 05:31:46;;;;;;;14.20;11.13;;;;;;;10.18;55.81;94310.00;5050191;28;20190;-74
2022/04/20 05:34:14;;;;;;;16.87;11.47;;;;;;;10.24;55.81;94319.69;5050313;28;20245;-74
2022/04/20 05:42:11;;;;;;;15.40;11.60;;;;;;;10.25;55.52;94311.06;5050572;28;20186;-73
2022/04/20 05:44:38;;;;;;;14.83;10.17;;;;;;;10.20;55.48;94295.34;5049999;28;20195;-74
2022/04/20 05:47:05;;;;;;;15.10;9.47;;;;;;;10.19;55.23;94296.28;5050019;28;20252;-78
2022/04/20 05:49:31;;;;;;;16.63;9.83;;;;;;;10.28;55.16;94328.66;5050020;28;20202;-75
2022/04/20 05:52:00;;;;;;;12.57;9.43;;;;;;;10.27;55.30;94316.03;5049984;28;20185;-75
2022/04/20 05:54:26;;;;;;;14.07;9.10;;;;;;;10.28;55.16;94325.31;5050013;28;20244;-74
2022/04/20 05:56:53;;;;;;;12.00;9.07;;;;;;;10.30;55.12;94321.66;5049811;28;20210;-78
2022/04/20 05:59:20;;;;;;;12.07;10.03;;;;;;;10.29;55.19;94324.38;5049702;28;20187;-76
2022/04/20 06:01:47;;;;;;;12.07;9.93;;;;;;;10.27;55.22;94318.56;5049979;28;20219;-74
2022/04/20 06:04:14;;;;;;;14.53;10.23;;;;;;;10.27;55.32;94331.34;5050142;28;20195;-76
2022/04/20 06:06:41;;;;;;;12.10;8.73;;;;;;;10.24;55.27;94329.06;5049920;28;20620;-76
2022/04/20 06:09:09;;;;;;;10.87;9.20;;;;;;;10.26;55.30;94335.66;5050068;28;20226;-81
2022/04/20 06:11:36;;;;;;;12.93;10.20;;;;;;;10.27;55.31;94339.81;5046572;28;20685;-73
2022/04/20 06:14:03;;;;;;;12.97;10.23;;;;;;;10.26;55.34;94327.19;5049388;28;20221;-76
2022/04/20 06:16:30;;;;;;;12.40;10.30;;;;;;;10.24;55.56;94327.34;5049338;28;20198;-75
2022/04/20 06:19:00;;;;;;;11.73;10.53;;;;;;;10.19;55.63;94329.50;5049149;28;20187;-79
2022/04/20 06:21:27;;;;;;;13.87;10.53;;;;;;;10.21;55.71;94332.72;5050172;28;20226;-75
2022/04/20 06:23:53;;;;;;;11.10;9.93;;;;;;;10.24;55.89;94329.06;5050999;28;20183;-79
2022/04/20 06:26:21;;;;;;;11.87;10.27;;;;;;;10.20;55.92;94313.22;5047883;28;20191;-80
2022/04/20 06:28:48;;;;;;;13.13;10.23;;;;;;;10.22;55.81;94313.88;5047868;28;20214;-82
2022/04/20 06:31:15;;;;;;;16.77;11.03;;;;;;;10.21;56.02;94314.81;5048784;28;20199;-77
2022/04/20 06:33:42;;;;;;;15.50;11.60;;;;;;;10.23;56.17;94312.13;5048680;28;20198;-76
2022/04/20 06:36:09;;;;;;;15.90;11.33;;;;;;;10.21;56.20;94312.28;5049365;28;20183;-73
2022/04/20 06:38:35;;;;;;;13.37;11.30;;;;;;;10.22;56.28;94313.06;5048799;28;20198;-74
2022/04/20 06:41:02;;;;;;;12.30;10.60;;;;;;;10.20;56.39;94315.78;5045449;28;20222;-73
2022/04/20 06:43:30;;;;;;;15.17;10.37;;;;;;;10.21;56.35;94309.72;5048288;28;20191;-75
2022/04/20 06:45:57;;;;;;;14.30;10.13;;;;;;;10.22;56.29;94310.50;5048863;28;20294;-74
2022/04/20 06:48:25;;;;;;;15.87;11.30;;;;;;;10.25;56.29;94317.94;5048951;28;20217;-72
2022/04/20 06:50:51;;;;;;;14.93;10.20;;;;;;;10.26;56.48;94320.34;5048771;28;20199;-71
2022/04/20 06:58:50;;;;;;;14.93;11.07;;;;;;;10.37;56.04;94306.56;5048440;28;20321;-74
2022/04/20 07:01:17;;;;;;;11.87;10.37;;;;;;;10.44;56.05;94304.19;5049038;28;20298;-76
2022/04/20 07:03:44;;;;;;;12.60;10.27;;;;;;;10.46;56.04;94297.19;5048624;28;20195;-74
2022/04/20 07:06:11;;;;;;;16.03;10.67;;;;;;;10.45;56.04;94282.81;5048636;28;20217;-74
2022/04/20 07:08:38;;;;;;;15.97;11.33;;;;;;;10.54;55.83;94292.97;5048131;28;20226;-74
2022/04/20 07:11:06;;;;;;;14.00;11.03;;;;;;;10.59;55.99;94294.28;5052110;28;20195;-75
2022/04/20 07:13:33;;;;;;;12.23;10.93;;;;;;;10.65;55.69;94312.38;5051996;28;20191;-79
2022/04/20 07:16:01;;;;;;;13.20;10.97;;;;;;;10.70;55.84;94317.84;5049073;28;20191;-76
2022/04/20 07:18:28;;;;;;;13.60;10.60;;;;;;;10.73;55.32;94324.44;5052297;28;20286;-75
2022/04/20 07:20:55;;;;;;;12.00;10.07;;;;;;;10.73;55.87;94325.22;5051333;28;20207;-73
2022/04/20 07:23:22;;;;;;;12.30;10.50;;;;;;;10.77;55.79;94325.75;5052191;28;20222;-75
2022/04/20 07:25:49;;;;;;;13.17;9.87;;;;;;;10.80;55.62;94333.13;5051890;28;20191;-74
2022/04/20 07:28:15;;;;;;;13.20;10.30;;;;;;;10.77;55.70;94320.63;5051729;28;20229;-75
2022/04/20 07:30:42;;;;;;;13.30;9.93;;;;;;;10.84;55.75;94316.53;5051805;28;20190;-73
2022/04/20 07:33:10;;;;;;;10.60;9.50;;;;;;;10.86;55.95;94318.94;5049541;28;20202;-76
2022/04/20 07:35:37;;;;;;;12.37;9.70;;;;;;;10.87;55.67;94317.97;5051363;28;20179;-72
2022/04/20 07:38:04;;;;;;;13.00;9.53;;;;;;;10.89;55.90;94318.66;5051014;28;20194;-74
2022/04/20 07:40:32;;;;;;;12.10;9.97;;;;;;;10.83;55.97;94307.22;5050985;28;20218;-72
2022/04/20 07:42:59;;;;;;;13.93;9.77;;;;;;;10.84;56.14;94310.59;5051297;28;20217;-73
2022/04/20 07:45:27;;;;;;;14.67;10.30;;;;;;;10.89;56.15;94318.66;5051709;28;20198;-74
2022/04/20 07:47:55;;;;;;;11.03;9.80;;;;;;;10.91;56.01;94319.28;5051202;28;20624;-73
2022/04/20 07:50:24;;;;;;;14.17;9.80;;;;;;;10.93;56.04;94314.84;5050989;28;20259;-73
2022/04/20 07:52:54;;;;;;;15.10;9.97;;;;;;;10.96;55.94;94317.88;5051029;28;20194;-75
2022/04/20 07:55:23;;;;;;;11.90;10.13;;;;;;;10.99;55.96;94316.78;5050888;28;20674;-75
2022/04/20 07:57:50;;;;;;;13.40;10.40;;;;;;;10.94;55.93;94307.00;5051132;28;20198;-74
2022/04/20 08:00:19;;;;;;;12.30;9.77;;;;;;;11.02;55.72;94314.75;5051087;28;20666;-75
2022/04/20 08:02:47;;;;;;;11.00;9.83;;;;;;;11.03;55.90;94311.22;5050553;28;20650;-73
2022/04/20 08:05:15;;;;;;;14.23;11.43;;;;;;;11.03;55.87;94300.19;5051074;28;20270;-76
2022/04/20 08:07:44;;;;;;;12.60;11.23;;;;;;;11.07;55.82;94305.81;5051943;28;20226;-76
2022/04/20 08:10:12;;;;;;;12.47;11.17;;;;;;;11.09;55.70;94296.22;5050385;28;20444;-76
2022/04/20 08:12:40;;;;;;;12.47;11.00;;;;;;;11.11;55.71;94292.56;5050862;28;20183;-73
2022/04/20 08:15:09;;;;;;;14.40;11.13;;;;;;;11.14;55.63;94288.88;5050397;28;20737;-73
2022/04/20 08:17:36;;;;;;;13.43;10.33;;;;;;;11.22;55.75;94291.50;5050739;28;20195;-72
2022/04/20 08:20:04;;;;;;;11.03;9.93;;;;;;;11.23;55.37;94282.88;5050473;28;20199;-75
2022/04/20 08:22:31;;;;;;;12.63;9.93;;;;;;;11.30;55.27;94289.78;5050446;28;20234;-72
2022/04/20 08:25:02;;;;;;;12.67;10.53;;;;;;;11.36;55.06;94283.28;5048041;28;20202;-78
2022/04/20 08:27:30;;;;;;;11.77;10.10;;;;;;;11.41;55.09;94275.13;5048347;28;20191;-75
2022/04/20 08:29:57;;;;;;;12.27;10.97;;;;;;;11.45;54.81;94274.69;5051022;28;20635;-75
2022/04/20 08:32:24;;;;;;;11.60;10.40;;;;;;;11.51;54.99;94275.81;5050320;28;20201;-76
2022/04/20 08:34:51;;;;;;;10.53;9.43;;;;;;;11.56;54.90;94276.16;5050273;28;20289;-74
2022/04/20 08:37:18;;;;;;;11.63;10.03;;;;;;;11.60;54.75;94268.97;5050878;28;20192;-80
2022/04/20 08:39:45;;;;;;;10.30;9.23;;;;;;;11.60;54.85;94261.28;5050065;28;20199;-75
2022/04/20 08:42:15;;;;;;;11.77;9.73;;;;;;;11.64;54.75;94254.91;5051584;28;20227;-79
2022/04/20 08:44:47;;;;;;;11.27;10.17;;;;;;;11.66;54.97;94250.44;5050848;28;20179;-72
2022/04/20 08:47:20;;;;;;;13.50;10.30;;;;;;;11.70;54.99;94254.25;5050960;28;20194;-75
2022/04/20 08:49:49;;;;;;;10.63;9.53;;;;;;;11.59;54.85;94231.50;5046687;28;20191;-73
2022/04/20 08:55:02;;;;;;;12.57;9.80;;;;;;;11.74;54.97;94243.56;5050259;28;20693;-73
2022/04/20 08:57:32;;;;;;;14.40;9.87;;;;;;;11.75;55.10;94244.38;5050088;28;20605;-75
2022/04/20 09:00:00;;;;;;;11.43;9.23;;;;;;;11.73;55.37;94248.84;5050187;28;20195;-74
2022/04/20 09:02:28;;;;;;;11.53;10.33;;;;;;;11.75;55.35;94246.94;5050104;28;20302;-73
2022/04/20 09:04:55;;;;;;;13.17;10.83;;;;;;;11.77;55.17;94247.56;5046562;28;20191;-73
2022/04/20 09:07:23;;;;;;;11.20;10.00;;;;;;;11.77;55.27;94242.44;5050183;28;20191;-74
2022/04/20 09:09:50;;;;;;;11.70;10.60;;;;;;;11.74;55.46;94235.91;5049632;28;20226;-74
2022/04/20 09:12:18;;;;;;;12.60;11.23;;;;;;;11.73;55.64;94233.47;5050176;28;20256;-77
2022/04/20 09:14:50;;;;;;;13.77;11.80;;;;;;;11.73;55.52;94231.72;5050186;28;20195;-72
2022/04/20 09:17:18;;;;;;;12.13;10.90;;;;;;;11.73;55.59;94213.78;5049289;28;20194;-72
2022/04/20 09:19:46;;;;;;;12.27;10.30;;;;;;;11.77;55.79;94219.41;5049611;28;20206;-73
2022/04/20 09:22:21;;;;;;;16.23;11.37;;;;;;;11.78;55.88;94215.88;5049787;28;20374;-73
2022/04/20 09:25:03;;;;;;;11.50;10.37;;;;;;;11.77;55.82;94202.25;5049833;28;20198;-76
2022/04/20 09:27:31;;;;;;;12.20;9.93;;;;;;;11.81;55.66;94190.75;5049035;28;20190;-74
2022/04/20 09:30:00;;;;;;;13.80;11.23;;;;;;;11.91;55.80;94212.88;5049509;28;20195;-72
2022/04/20 09:32:34;;;;;;;14.30;12.00;;;;;;;11.96;55.94;94215.78;5048441;28;20195;-72
2022/04/20 09:35:03;;;;;;;13.20;11.57;;;;;;;12.01;55.67;94216.91;5048126;28;20578;-78
2022/04/20 09:37:30;;;;;;;14.17;11.77;;;;;;;12.03;55.64;94198.81;5049313;28;20738;-77
2022/04/20 09:39:57;;;;;;;12.63;11.33;;;;;;;12.08;55.38;94206.03;5048750;28;20206;-78
2022/04/20 09:42:24;;;;;;;12.77;10.00;;;;;;;12.13;55.48;94196.88;5049098;28;20206;-78
2022/04/20 09:45:00;;;;;;;10.70;9.53;;;;;;;12.16;55.56;94195.78;5048761;28;20183;-79
2022/04/20 09:50:16;;;;;;;10.40;9.30;;;;;;;12.18;55.60;94188.75;5049233;28;20201;-77
2022/04/20 09:52:45;;;;;;;11.43;10.23;;;;;;;12.16;55.53;94186.31;5047588;28;20191;-75
2022/04/20 09:55:13;;;;;;;9.53;8.63;;;;;;;12.16;55.54;94193.22;5048620;28;20183;-79
2022/04/20 09:57:40;;;;;;;11.10;8.37;;;;;;;12.14;55.90;94190.81;5049647;28;20309;-78
2022/04/20 10:00:11;;;;;;;9.87;8.80;;;;;;;12.14;55.95;94195.94;5048980;28;20195;-74
2022/04/20 10:02:39;;;;;;;9.30;8.43;;;;;;;12.16;55.89;94190.66;5048751;28;20225;-80
2022/04/20 10:05:07;;;;;;;9.77;8.63;;;;;;;12.19;55.71;94192.91;5049154;28;20195;-79
2022/04/20 10:07:35;;;;;;;10.77;8.13;;;;;;;12.21;55.63;94189.19;5049553;28;20241;-79
2022/04/20 10:10:02;;;;;;;12.97;8.97;;;;;;;12.12;55.74;94161.97;5048049;28;20229;-79
2022/04/20 10:12:36;;;;;;;9.50;8.50;;;;;;;12.24;55.54;94170.16;5046669;28;20190;-80
2022/04/20 10:17:53;;;;;;;10.50;8.40;;;;;;;12.42;55.50;94182.81;5049069;28;20709;-81
2022/04/20 10:20:21;;;;;;;10.40;9.50;;;;;;;12.43;55.56;94182.63;5049340;28;20254;-78
2022/04/20 10:22:48;;;;;;;9.30;8.30;;;;;;;12.46;55.52;94166.94;5049047;28;20226;-82
2022/04/20 10:25:16;;;;;;;8.70;7.70;;;;;;;12.48;55.68;94166.78;5048445;28;20187;-77
2022/04/20 10:27:56;;;;;;;9.67;8.67;;;;;;;12.49;55.81;94155.56;5050084;28;20184;-80
2022/04/20 10:30:30;;;;;;;9.87;8.87;;;;;;;12.50;55.69;94155.38;5045757;28;20191;-79
2022/04/20 10:33:04;;;;;;;9.93;8.43;;;;;;;12.54;55.82;94150.72;5048887;28;20194;-79
2022/04/20 10:35:33;;;;;;;9.30;8.17;;;;;;;12.55;56.09;94145.44;5046973;28;20665;-79
2022/04/20 10:38:09;;;;;;;9.50;8.60;;;;;;;12.56;56.32;94151.34;5048567;28;20195;-76
2022/04/20 10:40:56;;;;;;;9.80;8.87;;;;;;;12.57;56.21;94145.28;5048949;28;20187;-78
2022/04/20 10:43:24;;;;;;;9.97;8.97;;;;;;;12.60;56.28;94139.00;5048128;28;20222;-79
2022/04/20 10:46:11;;;;;;;10.07;9.00;;;;;;;12.61;56.26;94133.75;5052045;28;20657;-77
2022/04/20 10:49:16;;;;;;;10.40;9.07;;;;;;;12.61;56.43;94132.91;5052076;28;20191;-77
2022/04/20 10:51:46;;;;;;;10.00;9.00;;;;;;;12.61;56.20;94144.00;4971817;28;20209;-79
2022/04/20 10:54:27;;;;;;;13.57;10.07;;;;;;;12.59;56.68;94122.03;4972574;28;20212;-80
2022/04/20 10:57:13;;;;;;;10.87;9.57;;;;;;;12.57;57.01;94122.22;4969360;28;20190;-76
2022/04/20 10:59:41;;;;;;;14.00;10.40;;;;;;;12.56;57.01;94118.03;4971170;28;20350;-77
2022/04/20 11:02:11;;;;;;;14.63;10.67;;;;;;;12.56;57.00;94118.03;4972126;28;20363;-75
2022/04/20 11:04:42;;;;;;;13.80;11.20;;;;;;;12.54;57.08;94128.44;4970420;28;20194;-74
2022/04/20 11:07:19;;;;;;;13.93;10.87;;;;;;;12.54;57.04;94122.53;4971910;28;20272;-78
2022/04/20 11:09:56;;;;;;;12.10;10.30;;;;;;;12.49;57.22;94129.91;4970665;28;20229;-74
2022/04/20 11:18:42;;;;;;;14.13;11.23;;;;;;;12.44;57.84;94137.31;4971853;28;20275;-79
2022/04/20 11:21:23;;;;;;;12.90;11.13;;;;;;;12.41;57.85;94127.34;4971496;28;20197;-78
2022/04/20 11:23:51;;;;;;;13.77;11.00;;;;;;;12.36;57.88;94140.66;4971484;28;20189;-79
2022/04/20 11:26:20;;;;;;;13.43;10.97;;;;;;;12.30;58.21;94139.56;4971030;28;20273;-75
2022/04/20 11:28:48;;;;;;;13.33;11.93;;;;;;;12.27;58.29;94142.44;5035105;28;20705;-74
2022/04/20 11:31:15;;;;;;;13.83;11.00;;;;;;;12.22;58.50;94138.75;5051775;28;20191;-77
2022/04/20 11:33:42;;;;;;;14.57;10.37;;;;;;;12.14;58.46;94134.44;5052411;28;20198;-77
2022/04/20 11:36:12;;;;;;;13.83;11.63;;;;;;;12.16;58.85;94136.81;5048767;28;20195;-78
2022/04/20 11:38:41;;;;;;;17.53;12.90;;;;;;;12.12;58.79;94132.97;5051882;28;20195;-83
2022/04/20 11:41:09;;;;;;;15.07;12.80;;;;;;;12.10;58.83;94132.34;5051666;28;20191;-77
2022/04/20 11:43:36;;;;;;;16.00;13.63;;;;;;;12.09;58.96;94140.97;5051789;28;20635;-78
2022/04/20 11:46:04;;;;;;;19.37;13.43;;;;;;;12.06;58.77;94142.13;5051559;28;20678;-81
2022/04/20 11:48:32;;;;;;;17.47;14.07;;;;;;;12.03;59.08;94134.75;5051856;28;20179;-83
2022/04/20 11:51:00;;;;;;;21.80;13.80;;;;;;;12.01;59.05;94134.13;5051883;28;20617;-82
2022/04/20 11:53:33;;;;;;;17.43;13.93;;;;;;;11.95;59.33;94138.09;5051360;28;20264;-80
2022/04/20 11:56:02;;;;;;;17.20;12.93;;;;;;;11.93;59.26;94150.28;5050551;28;20187;-73
2022/04/20 11:58:29;;;;;;;17.40;13.00;;;;;;;11.89;59.34;94149.00;5051337;28;20187;-77
2022/04/20 12:01:00;;;;;;;17.37;12.73;;;;;;;11.85;59.34;94147.72;5051234;28;20617;-77
2022/04/20 12:03:31;;;;;;;13.87;12.40;;;;;;;11.80;59.50;94139.69;5050995;28;20225;-76